sensor_id;sensor_type;location;lat;lon;timestamp;pressure;altitude;pressure_sealevel;temperature;humidity
24306;BME280;12423;48.768;8.850;2022-12-18T00:01:36;98019.78;;;-11.37;100.00
24306;BME280;12423;48.768;8.850;2022-12-18T00:03:37;98023.34;;;-11.28;100.00
24306;BME280;12423;48.768;8.850;2022-12-18T00:05:45;98023.31;;;-11.32;100.00
24306;BME280;12423;48.768;8.850;2022-12-18T00:07:46;98021.59;;;-11.31;100.00
24306;BME280;12423;48.768;8.850;2022-12-18T00:09:46;98012.72;;;-11.49;100.00
24306;BME280;12423;48.768;8.850;2022-12-18T00:11:47;98015.59;;;-11.28;100.00
24306;BME280;12423;48.768;8.850;2022-12-18T00:13:48;98014.81;;;-11.26;100.00
24306;BME280;12423;48.768;8.850;2022-12-18T00:15:49;98008.66;;;-11.34;100.00
24306;BME280;12423;48.768;8.850;2022-12-18T00:17:50;98009.56;;;-11.31;100.00
24306;BME280;12423;48.768;8.850;2022-12-18T00:19:50;98012.13;;;-11.32;100.00
24306;BME280;12423;48.768;8.850;2022-12-18T00:21:51;98009.47;;;-11.37;100.00
24306;BME280;12423;48.768;8.850;2022-12-18T00:23:52;98009.50;;;-11.34;100.00
24306;BME280;12423;48.768;8.850;2022-12-18T00:25:53;98017.94;;;-11.45;100.00
24306;BME280;12423;48.768;8.850;2022-12-18T00:27:54;98018.56;;;-11.59;100.00
24306;BME280;12423;48.768;8.850;2022-12-18T00:29:54;98017.06;;;-11.46;100.00
24306;BME280;12423;48.768;8.850;2022-12-18T00:31:55;98018.69;;;-11.53;100.00
24306;BME280;12423;48.768;8.850;2022-12-18T00:33:56;98015.16;;;-11.58;100.00
24306;BME280;12423;48.768;8.850;2022-12-18T00:36:04;98016.19;;;-11.45;100.00
24306;BME280;12423;48.768;8.850;2022-12-18T00:38:06;98023.16;;;-11.41;100.00
24306;BME280;12423;48.768;8.850;2022-12-18T00:40:07;98015.44;;;-11.41;100.00
24306;BME280;12423;48.768;8.850;2022-12-18T00:42:09;98017.00;;;-11.49;100.00
24306;BME280;12423;48.768;8.850;2022-12-18T00:44:29;98025.72;;;-11.42;100.00
24306;BME280;12423;48.768;8.850;2022-12-18T00:46:30;98025.69;;;-11.44;100.00
24306;BME280;12423;48.768;8.850;2022-12-18T00:48:31;98024.06;;;-11.39;100.00
24306;BME280;12423;48.768;8.850;2022-12-18T00:50:32;98031.94;;;-11.29;100.00
24306;BME280;12423;48.768;8.850;2022-12-18T00:52:34;98031.72;;;-11.43;100.00
24306;BME280;12423;48.768;8.850;2022-12-18T00:54:35;98036.81;;;-11.48;100.00
24306;BME280;12423;48.768;8.850;2022-12-18T00:56:37;98025.81;;;-11.38;100.00
24306;BME280;12423;48.768;8.850;2022-12-18T00:58:38;98025.63;;;-11.47;100.00
24306;BME280;12423;48.768;8.850;2022-12-18T01:00:38;98017.34;;;-11.27;100.00
24306;BME280;12423;48.768;8.850;2022-12-18T01:02:39;98015.59;;;-11.32;100.00
24306;BME280;12423;48.768;8.850;2022-12-18T01:04:41;98019.94;;;-11.27;100.00
24306;BME280;12423;48.768;8.850;2022-12-18T01:06:42;98015.53;;;-11.35;100.00
24306;BME280;12423;48.768;8.850;2022-12-18T01:08:43;98012.09;;;-11.34;100.00
24306;BME280;12423;48.768;8.850;2022-12-18T01:10:46;98024.09;;;-11.36;100.00
24306;BME280;12423;48.768;8.850;2022-12-18T01:12:47;98026.50;;;-11.46;100.00
24306;BME280;12423;48.768;8.850;2022-12-18T01:14:48;98012.94;;;-11.36;100.00
24306;BME280;12423;48.768;8.850;2022-12-18T01:16:49;98022.34;;;-11.38;100.00
24306;BME280;12423;48.768;8.850;2022-12-18T01:18:53;98020.38;;;-11.53;100.00
24306;BME280;12423;48.768;8.850;2022-12-18T01:20:55;98007.75;;;-11.38;100.00
24306;BME280;12423;48.768;8.850;2022-12-18T01:22:55;98001.69;;;-11.38;100.00
24306;BME280;12423;48.768;8.850;2022-12-18T01:24:56;98005.03;;;-11.45;100.00
24306;BME280;12423;48.768;8.850;2022-12-18T01:26:57;98000.84;;;-11.39;100.00
24306;BME280;12423;48.768;8.850;2022-12-18T01:28:58;98016.97;;;-11.52;100.00
24306;BME280;12423;48.768;8.850;2022-12-18T01:31:09;98024.91;;;-11.40;100.00
24306;BME280;12423;48.768;8.850;2022-12-18T01:33:09;98029.13;;;-11.43;100.00
24306;BME280;12423;48.768;8.850;2022-12-18T01:35:10;98024.09;;;-11.36;100.00
24306;BME280;12423;48.768;8.850;2022-12-18T01:37:11;98030.03;;;-11.43;100.00
24306;BME280;12423;48.768;8.850;2022-12-18T01:39:13;98029.25;;;-11.36;100.00
24306;BME280;12423;48.768;8.850;2022-12-18T01:41:18;98026.53;;;-11.43;100.00
24306;BME280;12423;48.768;8.850;2022-12-18T01:43:18;98037.16;;;-11.26;100.00
24306;BME280;12423;48.768;8.850;2022-12-18T01:45:21;98026.91;;;-11.20;100.00
24306;BME280;12423;48.768;8.850;2022-12-18T01:47:28;98030.31;;;-11.24;100.00
24306;BME280;12423;48.768;8.850;2022-12-18T01:49:29;98027.50;;;-11.38;100.00
24306;BME280;12423;48.768;8.850;2022-12-18T01:51:30;98020.47;;;-11.47;100.00
24306;BME280;12423;48.768;8.850;2022-12-18T01:53:31;98018.00;;;-11.41;100.00
24306;BME280;12423;48.768;8.850;2022-12-18T01:55:37;98017.34;;;-11.27;100.00
24306;BME280;12423;48.768;8.850;2022-12-18T01:57:40;98012.16;;;-11.31;100.00
24306;BME280;12423;48.768;8.850;2022-12-18T01:59:42;98019.16;;;-11.23;100.00
24306;BME280;12423;48.768;8.850;2022-12-18T02:01:45;98016.63;;;-11.19;100.00
24306;BME280;12423;48.768;8.850;2022-12-18T02:03:46;98018.25;;;-11.24;100.00
24306;BME280;12423;48.768;8.850;2022-12-18T02:05:49;98026.88;;;-11.22;100.00
24306;BME280;12423;48.768;8.850;2022-12-18T02:12:16;98024.31;;;-11.23;100.00
24306;BME280;12423;48.768;8.850;2022-12-18T02:14:23;98023.56;;;-11.16;100.00
24306;BME280;12423;48.768;8.850;2022-12-18T02:18:35;98009.94;;;-11.06;100.00
24306;BME280;12423;48.768;8.850;2022-12-18T02:20:40;98017.53;;;-11.17;100.00
24306;BME280;12423;48.768;8.850;2022-12-18T02:27:07;98028.72;;;-11.16;100.00
24306;BME280;12423;48.768;8.850;2022-12-18T02:29:17;98019.22;;;-11.17;100.00
24306;BME280;12423;48.768;8.850;2022-12-18T02:31:22;98019.19;;;-11.20;100.00
24306;BME280;12423;48.768;8.850;2022-12-18T02:33:23;98023.56;;;-11.16;100.00
24306;BME280;12423;48.768;8.850;2022-12-18T02:35:26;98031.16;;;-11.24;100.00
24306;BME280;12423;48.768;8.850;2022-12-18T02:37:31;98021.81;;;-11.17;100.00
24306;BME280;12423;48.768;8.850;2022-12-18T02:39:36;98020.94;;;-11.18;100.00
24306;BME280;12423;48.768;8.850;2022-12-18T02:41:39;98016.69;;;-11.14;100.00
24306;BME280;12423;48.768;8.850;2022-12-18T02:43:42;98021.50;;;-11.37;100.00
24306;BME280;12423;48.768;8.850;2022-12-18T02:45:53;98018.25;;;-11.25;100.00
24306;BME280;12423;48.768;8.850;2022-12-18T02:47:55;98031.72;;;-11.42;100.00
24306;BME280;12423;48.768;8.850;2022-12-18T02:52:11;98037.75;;;-11.43;100.00
24306;BME280;12423;48.768;8.850;2022-12-18T02:54:38;98030.94;;;-11.39;100.00
24306;BME280;12423;48.768;8.850;2022-12-18T02:56:45;98018.28;;;-11.22;100.00
24306;BME280;12423;48.768;8.850;2022-12-18T03:01:13;98028.47;;;-11.33;100.00
24306;BME280;12423;48.768;8.850;2022-12-18T03:03:18;98025.31;;;-11.12;100.00
24306;BME280;12423;48.768;8.850;2022-12-18T03:05:21;98026.41;;;-10.98;100.00
24306;BME280;12423;48.768;8.850;2022-12-18T03:07:26;98033.44;;;-10.87;100.00
24306;BME280;12423;48.768;8.850;2022-12-18T03:09:34;98035.97;;;-10.90;100.00
24306;BME280;12423;48.768;8.850;2022-12-18T03:11:37;98046.34;;;-10.87;100.00
24306;BME280;12423;48.768;8.850;2022-12-18T03:13:59;98038.47;;;-10.97;100.00
24306;BME280;12423;48.768;8.850;2022-12-18T03:16:00;98040.09;;;-11.03;100.00
24306;BME280;12423;48.768;8.850;2022-12-18T03:18:03;98036.69;;;-11.01;100.00
24306;BME280;12423;48.768;8.850;2022-12-18T03:20:06;98040.50;;;-11.32;100.00
24306;BME280;12423;48.768;8.850;2022-12-18T03:22:09;98037.06;;;-11.33;100.00
24306;BME280;12423;48.768;8.850;2022-12-18T03:24:18;98022.09;;;-10.97;100.00
24306;BME280;12423;48.768;8.850;2022-12-18T03:26:22;98032.34;;;-11.05;100.00
24306;BME280;12423;48.768;8.850;2022-12-18T03:28:28;98041.13;;;-10.94;100.00
24306;BME280;12423;48.768;8.850;2022-12-18T03:30:35;98036.69;;;-11.01;100.00
24306;BME280;12423;48.768;8.850;2022-12-18T03:32:39;98031.66;;;-10.91;100.00
24306;BME280;12423;48.768;8.850;2022-12-18T03:34:42;98041.69;;;-11.13;100.00
24306;BME280;12423;48.768;8.850;2022-12-18T03:36:49;98035.72;;;-11.07;100.00
24306;BME280;12423;48.768;8.850;2022-12-18T03:38:50;98042.50;;;-11.14;100.00
24306;BME280;12423;48.768;8.850;2022-12-18T03:41:11;98033.81;;;-11.19;100.00
24306;BME280;12423;48.768;8.850;2022-12-18T03:43:49;98038.28;;;-11.09;100.00
24306;BME280;12423;48.768;8.850;2022-12-18T03:45:54;98041.66;;;-11.15;100.00
24306;BME280;12423;48.768;8.850;2022-12-18T03:50:14;98028.84;;;-11.08;100.00
24306;BME280;12423;48.768;8.850;2022-12-18T03:52:23;98030.91;;;-11.41;100.00
24306;BME280;12423;48.768;8.850;2022-12-18T03:54:27;98037.47;;;-11.58;100.00
24306;BME280;12423;48.768;8.850;2022-12-18T03:56:38;98029.44;;;-11.26;100.00
24306;BME280;12423;48.768;8.850;2022-12-18T03:58:41;98030.31;;;-11.24;100.00
24306;BME280;12423;48.768;8.850;2022-12-18T04:00:50;98031.06;;;-11.30;100.00
24306;BME280;12423;48.768;8.850;2022-12-18T04:02:55;98025.09;;;-11.27;100.00
24306;BME280;12423;48.768;8.850;2022-12-18T04:05:04;98027.63;;;-11.31;100.00
24306;BME280;12423;48.768;8.850;2022-12-18T04:07:05;98028.22;;;-11.47;100.00
24306;BME280;12423;48.768;8.850;2022-12-18T04:09:09;98023.91;;;-11.46;100.00
24306;BME280;12423;48.768;8.850;2022-12-18T04:11:14;98028.44;;;-11.35;100.00
24306;BME280;12423;48.768;8.850;2022-12-18T04:13:27;98037.06;;;-11.33;100.00
24306;BME280;12423;48.768;8.850;2022-12-18T04:15:28;98034.22;;;-11.50;100.00
24306;BME280;12423;48.768;8.850;2022-12-18T04:17:30;98030.66;;;-11.56;100.00
24306;BME280;12423;48.768;8.850;2022-12-18T04:19:32;98034.72;;;-11.69;100.00
24306;BME280;12423;48.768;8.850;2022-12-18T04:21:33;98043.41;;;-11.64;100.00
24306;BME280;12423;48.768;8.850;2022-12-18T04:23:34;98037.34;;;-11.68;100.00
24306;BME280;12423;48.768;8.850;2022-12-18T04:25:36;98038.97;;;-11.73;100.00
24306;BME280;12423;48.768;8.850;2022-12-18T04:27:43;98042.19;;;-11.83;100.00
24306;BME280;12423;48.768;8.850;2022-12-18T04:29:44;98045.56;;;-11.87;100.00
24306;BME280;12423;48.768;8.850;2022-12-18T04:31:45;98041.22;;;-11.90;100.00
24306;BME280;12423;48.768;8.850;2022-12-18T04:33:46;98032.53;;;-11.96;100.00
24306;BME280;12423;48.768;8.850;2022-12-18T04:35:47;98028.38;;;-11.87;100.00
24306;BME280;12423;48.768;8.850;2022-12-18T04:37:48;98020.53;;;-11.96;100.00
24306;BME280;12423;48.768;8.850;2022-12-18T04:39:50;98020.59;;;-11.91;100.00
24306;BME280;12423;48.768;8.850;2022-12-18T04:41:58;98024.78;;;-11.98;100.00
24306;BME280;12423;48.768;8.850;2022-12-18T04:44:00;98032.63;;;-11.90;100.00
24306;BME280;12423;48.768;8.850;2022-12-18T04:46:04;98025.84;;;-11.85;100.00
24306;BME280;12423;48.768;8.850;2022-12-18T04:48:06;98014.78;;;-11.79;100.00
24306;BME280;12423;48.768;8.850;2022-12-18T04:50:06;98020.53;;;-11.96;100.00
24306;BME280;12423;48.768;8.850;2022-12-18T04:52:07;98027.31;;;-11.99;100.00
24306;BME280;12423;48.768;8.850;2022-12-18T04:54:08;98018.91;;;-11.89;100.00
24306;BME280;12423;48.768;8.850;2022-12-18T04:56:10;98015.47;;;-11.88;100.00
24306;BME280;12423;48.768;8.850;2022-12-18T04:58:11;98018.97;;;-11.86;100.00
24306;BME280;12423;48.768;8.850;2022-12-18T05:00:12;98018.69;;;-11.53;100.00
24306;BME280;12423;48.768;8.850;2022-12-18T05:02:13;98016.84;;;-11.58;100.00
24306;BME280;12423;48.768;8.850;2022-12-18T05:04:14;98021.69;;;-11.77;100.00
24306;BME280;12423;48.768;8.850;2022-12-18T05:06:14;98018.38;;;-11.71;100.00
24306;BME280;12423;48.768;8.850;2022-12-18T05:08:15;98029.97;;;-11.46;100.00
24306;BME280;12423;48.768;8.850;2022-12-18T05:10:16;98027.63;;;-11.31;100.00
24306;BME280;12423;48.768;8.850;2022-12-18T05:12:17;98029.47;;;-11.23;100.00
24306;BME280;12423;48.768;8.850;2022-12-18T05:14:18;98024.31;;;-11.23;100.00
24306;BME280;12423;48.768;8.850;2022-12-18T05:16:18;98037.88;;;-11.34;100.00
24306;BME280;12423;48.768;8.850;2022-12-18T05:18:19;98026.00;;;-11.24;100.00
24306;BME280;12423;48.768;8.850;2022-12-18T05:20:20;98025.56;;;-10.98;100.00
24306;BME280;12423;48.768;8.850;2022-12-18T05:22:21;98025.75;;;-10.84;100.00
24306;BME280;12423;48.768;8.850;2022-12-18T05:24:21;98018.91;;;-10.81;100.00
24306;BME280;12423;48.768;8.850;2022-12-18T05:26:22;98032.69;;;-10.80;100.00
24306;BME280;12423;48.768;8.850;2022-12-18T05:28:23;98034.56;;;-10.70;100.00
24306;BME280;12423;48.768;8.850;2022-12-18T05:30:25;98038.88;;;-10.69;100.00
24306;BME280;12423;48.768;8.850;2022-12-18T05:32:25;98039.00;;;-10.60;100.00
24306;BME280;12423;48.768;8.850;2022-12-18T05:34:26;98036.38;;;-10.63;100.00
24306;BME280;12423;48.768;8.850;2022-12-18T05:36:27;98022.63;;;-10.62;100.00
24306;BME280;12423;48.768;8.850;2022-12-18T05:38:28;98017.50;;;-10.59;100.00
24306;BME280;12423;48.768;8.850;2022-12-18T05:40:29;98017.56;;;-10.54;100.00
24306;BME280;12423;48.768;8.850;2022-12-18T05:42:30;98015.00;;;-10.52;100.00
24306;BME280;12423;48.768;8.850;2022-12-18T05:44:31;98022.06;;;-10.36;100.00
24306;BME280;12423;48.768;8.850;2022-12-18T05:46:32;98027.31;;;-10.27;100.00
24306;BME280;12423;48.768;8.850;2022-12-18T05:48:33;98029.91;;;-10.27;100.00
24306;BME280;12423;48.768;8.850;2022-12-18T05:50:37;98028.44;;;-10.06;100.00
24306;BME280;12423;48.768;8.850;2022-12-18T05:52:39;98033.63;;;-10.03;100.00
24306;BME280;12423;48.768;8.850;2022-12-18T05:54:39;98026.63;;;-10.12;100.00
24306;BME280;12423;48.768;8.850;2022-12-18T05:56:40;98029.31;;;-10.04;100.00
24306;BME280;12423;48.768;8.850;2022-12-18T05:58:41;98037.06;;;-10.06;100.00
24306;BME280;12423;48.768;8.850;2022-12-18T06:00:43;98038.78;;;-10.05;100.00
24306;BME280;12423;48.768;8.850;2022-12-18T06:02:48;98025.00;;;-10.05;100.00
24306;BME280;12423;48.768;8.850;2022-12-18T06:04:48;98023.28;;;-10.03;100.00
24306;BME280;12423;48.768;8.850;2022-12-18T06:06:49;98016.41;;;-10.04;100.00
24306;BME280;12423;48.768;8.850;2022-12-18T06:08:50;98025.84;;;-10.05;100.00
24306;BME280;12423;48.768;8.850;2022-12-18T06:10:51;98029.38;;;-9.99;100.00
24306;BME280;12423;48.768;8.850;2022-12-18T06:12:53;98047.38;;;-10.07;100.00
24306;BME280;12423;48.768;8.850;2022-12-18T06:14:53;98038.88;;;-9.95;100.00
24306;BME280;12423;48.768;8.850;2022-12-18T06:16:54;98049.94;;;-10.09;100.00
24306;BME280;12423;48.768;8.850;2022-12-18T06:18:55;98047.22;;;-10.20;100.00
24306;BME280;12423;48.768;8.850;2022-12-18T06:20:57;98042.09;;;-10.16;100.00
24306;BME280;12423;48.768;8.850;2022-12-18T06:22:59;98038.66;;;-10.15;100.00
24306;BME280;12423;48.768;8.850;2022-12-18T06:24:59;98039.66;;;-10.04;100.00
24306;BME280;12423;48.768;8.850;2022-12-18T06:27:00;98043.25;;;-9.91;100.00
24306;BME280;12423;48.768;8.850;2022-12-18T06:29:01;98046.94;;;-9.69;100.00
24306;BME280;12423;48.768;8.850;2022-12-18T06:31:02;98046.06;;;-9.71;100.00
24306;BME280;12423;48.768;8.850;2022-12-18T06:33:03;98043.41;;;-9.76;100.00
24306;BME280;12423;48.768;8.850;2022-12-18T06:35:04;98046.09;;;-9.64;100.00
24306;BME280;12423;48.768;8.850;2022-12-18T06:37:05;98043.53;;;-9.67;100.00
24306;BME280;12423;48.768;8.850;2022-12-18T06:39:06;98036.69;;;-9.57;100.00
24306;BME280;12423;48.768;8.850;2022-12-18T06:41:07;98049.66;;;-9.52;100.00
24306;BME280;12423;48.768;8.850;2022-12-18T06:43:08;98051.59;;;-9.31;100.00
24306;BME280;12423;48.768;8.850;2022-12-18T06:45:09;98061.66;;;-9.62;100.00
24306;BME280;12423;48.768;8.850;2022-12-18T06:47:10;98054.75;;;-9.63;100.00
24306;BME280;12423;48.768;8.850;2022-12-18T06:49:11;98057.22;;;-9.74;100.00
24306;BME280;12423;48.768;8.850;2022-12-18T06:51:11;98063.38;;;-9.63;100.00
24306;BME280;12423;48.768;8.850;2022-12-18T06:53:12;98068.59;;;-9.59;100.00
24306;BME280;12423;48.768;8.850;2022-12-18T06:55:13;98063.44;;;-9.56;100.00
24306;BME280;12423;48.768;8.850;2022-12-18T06:57:14;98072.06;;;-9.56;100.00
24306;BME280;12423;48.768;8.850;2022-12-18T06:59:14;98075.53;;;-9.54;100.00
24306;BME280;12423;48.768;8.850;2022-12-18T07:01:15;98068.66;;;-9.53;100.00
24306;BME280;12423;48.768;8.850;2022-12-18T07:03:16;98075.41;;;-9.66;100.00
24306;BME280;12423;48.768;8.850;2022-12-18T07:05:17;98079.69;;;-9.71;100.00
24306;BME280;12423;48.768;8.850;2022-12-18T07:07:18;98085.75;;;-9.66;100.00
24306;BME280;12423;48.768;8.850;2022-12-18T07:09:18;98079.88;;;-9.53;100.00
24306;BME280;12423;48.768;8.850;2022-12-18T07:11:19;98085.84;;;-9.57;100.00
24306;BME280;12423;48.768;8.850;2022-12-18T07:13:20;98081.66;;;-9.46;100.00
24306;BME280;12423;48.768;8.850;2022-12-18T07:15:21;98081.63;;;-9.47;100.00
24306;BME280;12423;48.768;8.850;2022-12-18T07:17:21;98083.31;;;-9.51;100.00
24306;BME280;12423;48.768;8.850;2022-12-18T07:19:23;98072.09;;;-9.53;100.00
24306;BME280;12423;48.768;8.850;2022-12-18T07:21:24;98077.19;;;-9.60;100.00
24306;BME280;12423;48.768;8.850;2022-12-18T07:23:25;98084.13;;;-9.58;100.00
24306;BME280;12423;48.768;8.850;2022-12-18T07:25:26;98078.84;;;-9.67;100.00
24306;BME280;12423;48.768;8.850;2022-12-18T07:27:27;98077.13;;;-9.68;100.00
24306;BME280;12423;48.768;8.850;2022-12-18T07:29:28;98077.19;;;-9.59;100.00
24306;BME280;12423;48.768;8.850;2022-12-18T07:31:28;98081.47;;;-9.63;100.00
24306;BME280;12423;48.768;8.850;2022-12-18T07:33:29;98080.66;;;-9.60;100.00
24306;BME280;12423;48.768;8.850;2022-12-18T07:35:30;98073.84;;;-9.49;100.00
24306;BME280;12423;48.768;8.850;2022-12-18T07:37:31;98073.06;;;-9.41;100.00
24306;BME280;12423;48.768;8.850;2022-12-18T07:39:31;98076.59;;;-9.33;100.00
24306;BME280;12423;48.768;8.850;2022-12-18T07:41:32;98075.72;;;-9.35;100.00
24306;BME280;12423;48.768;8.850;2022-12-18T07:43:42;98075.81;;;-9.24;100.00
24306;BME280;12423;48.768;8.850;2022-12-18T07:45:43;98075.94;;;-9.14;100.00
24306;BME280;12423;48.768;8.850;2022-12-18T07:47:44;98088.03;;;-9.10;100.00
24306;BME280;12423;48.768;8.850;2022-12-18T07:49:44;98085.38;;;-9.14;100.00
24306;BME280;12423;48.768;8.850;2022-12-18T07:51:45;98086.28;;;-9.11;100.00
24306;BME280;12423;48.768;8.850;2022-12-18T07:53:49;98092.41;;;-8.99;100.00
24306;BME280;12423;48.768;8.850;2022-12-18T07:55:54;98092.41;;;-9.04;100.00
24306;BME280;12423;48.768;8.850;2022-12-18T07:57:55;98089.75;;;-9.12;100.00
24306;BME280;12423;48.768;8.850;2022-12-18T07:59:56;98097.59;;;-9.01;100.00
24306;BME280;12423;48.768;8.850;2022-12-18T08:01:56;98096.72;;;-9.01;100.00
24306;BME280;12423;48.768;8.850;2022-12-18T08:03:57;98083.81;;;-8.97;100.00
24306;BME280;12423;48.768;8.850;2022-12-18T08:05:59;98091.56;;;-8.98;100.00
24306;BME280;12423;48.768;8.850;2022-12-18T08:08:00;98083.84;;;-8.95;100.00
24306;BME280;12423;48.768;8.850;2022-12-18T08:10:01;98084.78;;;-8.84;100.00
24306;BME280;12423;48.768;8.850;2022-12-18T08:12:02;98080.38;;;-8.94;100.00
24306;BME280;12423;48.768;8.850;2022-12-18T08:14:02;98084.84;;;-8.73;100.00
24306;BME280;12423;48.768;8.850;2022-12-18T08:16:04;98093.59;;;-8.60;100.00
24306;BME280;12423;48.768;8.850;2022-12-18T08:18:05;98095.34;;;-8.59;100.00
24306;BME280;12423;48.768;8.850;2022-12-18T08:20:06;98091.03;;;-8.57;100.00
24306;BME280;12423;48.768;8.850;2022-12-18T08:22:07;98089.34;;;-8.50;100.00
24306;BME280;12423;48.768;8.850;2022-12-18T08:24:08;98091.97;;;-8.46;100.00
24306;BME280;12423;48.768;8.850;2022-12-18T08:26:10;98093.72;;;-8.36;100.00
24306;BME280;12423;48.768;8.850;2022-12-18T08:28:11;98084.25;;;-8.27;100.00
24306;BME280;12423;48.768;8.850;2022-12-18T08:30:12;98087.72;;;-8.22;100.00
24306;BME280;12423;48.768;8.850;2022-12-18T08:32:12;98092.03;;;-8.27;100.00
24306;BME280;12423;48.768;8.850;2022-12-18T08:34:13;98091.25;;;-8.12;100.00
24306;BME280;12423;48.768;8.850;2022-12-18T08:36:15;98093.88;;;-8.06;100.00
24306;BME280;12423;48.768;8.850;2022-12-18T08:38:16;98092.16;;;-8.03;100.00
24306;BME280;12423;48.768;8.850;2022-12-18T08:40:16;98088.72;;;-7.96;100.00
24306;BME280;12423;48.768;8.850;2022-12-18T08:42:17;98093.91;;;-7.96;100.00
24306;BME280;12423;48.768;8.850;2022-12-18T08:44:37;98093.06;;;-7.85;100.00
24306;BME280;12423;48.768;8.850;2022-12-18T08:46:39;98084.44;;;-7.84;100.00
24306;BME280;12423;48.768;8.850;2022-12-18T08:48:40;98082.72;;;-7.81;100.00
24306;BME280;12423;48.768;8.850;2022-12-18T08:50:41;98081.06;;;-7.63;100.00
24306;BME280;12423;48.768;8.850;2022-12-18T08:52:42;98081.09;;;-7.57;100.00
24306;BME280;12423;48.768;8.850;2022-12-18T08:54:42;98075.88;;;-7.48;100.00
24306;BME280;12423;48.768;8.850;2022-12-18T08:56:43;98077.66;;;-7.27;100.00
24306;BME280;12423;48.768;8.850;2022-12-18T08:58:44;98080.28;;;-7.24;100.00
24306;BME280;12423;48.768;8.850;2022-12-18T09:00:45;98074.22;;;-7.06;100.00
24306;BME280;12423;48.768;8.850;2022-12-18T09:02:45;98073.34;;;-7.03;100.00
24306;BME280;12423;48.768;8.850;2022-12-18T09:04:47;98080.28;;;-7.05;100.00
24306;BME280;12423;48.768;8.850;2022-12-18T09:06:47;98073.34;;;-7.00;100.00
24306;BME280;12423;48.768;8.850;2022-12-18T09:08:48;98064.69;;;-6.80;100.00
24306;BME280;12423;48.768;8.850;2022-12-18T09:10:49;98066.41;;;-6.69;100.00
24306;BME280;12423;48.768;8.850;2022-12-18T09:12:50;98062.97;;;-6.64;100.00
24306;BME280;12423;48.768;8.850;2022-12-18T09:14:51;98064.66;;;-6.62;100.00
24306;BME280;12423;48.768;8.850;2022-12-18T09:16:51;98062.06;;;-6.57;100.00
24306;BME280;12423;48.768;8.850;2022-12-18T09:18:52;98066.41;;;-6.53;100.00
24306;BME280;12423;48.768;8.850;2022-12-18T09:20:59;98062.88;;;-6.34;100.00
24306;BME280;12423;48.768;8.850;2022-12-18T09:23:00;98058.56;;;-6.41;100.00
24306;BME280;12423;48.768;8.850;2022-12-18T09:25:01;98051.63;;;-6.37;100.00
24306;BME280;12423;48.768;8.850;2022-12-18T09:27:01;98061.16;;;-6.36;100.00
24306;BME280;12423;48.768;8.850;2022-12-18T09:29:02;98063.72;;;-6.19;100.00
24306;BME280;12423;48.768;8.850;2022-12-18T09:31:05;98059.38;;;-6.19;100.00
24306;BME280;12423;48.768;8.850;2022-12-18T09:33:06;98048.97;;;-6.19;100.00
24306;BME280;12423;48.768;8.850;2022-12-18T09:35:07;98048.09;;;-6.16;100.00
24306;BME280;12423;48.768;8.850;2022-12-18T09:37:08;98036.78;;;-6.07;100.00
24306;BME280;12423;48.768;8.850;2022-12-18T09:39:09;98045.47;;;-6.05;100.00
24306;BME280;12423;48.768;8.850;2022-12-18T09:43:33;98047.88;;;-5.75;100.00
24306;BME280;12423;48.768;8.850;2022-12-18T09:45:43;98053.06;;;-5.67;100.00
24306;BME280;12423;48.768;8.850;2022-12-18T09:47:45;98051.25;;;-5.52;100.00
24306;BME280;12423;48.768;8.850;2022-12-18T09:49:49;98048.59;;;-5.45;100.00
24306;BME280;12423;48.768;8.850;2022-12-18T09:51:55;98060.75;;;-5.44;100.00
24306;BME280;12423;48.768;8.850;2022-12-18T09:54:01;98054.69;;;-5.47;100.00
24306;BME280;12423;48.768;8.850;2022-12-18T09:56:03;98057.19;;;-5.33;100.00
24306;BME280;12423;48.768;8.850;2022-12-18T10:00:19;98057.06;;;-5.15;100.00
24306;BME280;12423;48.768;8.850;2022-12-18T10:02:21;98058.78;;;-5.11;100.00
24306;BME280;12423;48.768;8.850;2022-12-18T10:04:23;98063.06;;;-5.04;100.00
24306;BME280;12423;48.768;8.850;2022-12-18T10:06:39;98062.22;;;-5.03;100.00
24306;BME280;12423;48.768;8.850;2022-12-18T10:08:44;98056.97;;;-4.98;100.00
24306;BME280;12423;48.768;8.850;2022-12-18T10:10:48;98054.28;;;-4.92;100.00
24306;BME280;12423;48.768;8.850;2022-12-18T10:17:07;98060.19;;;-4.70;100.00
24306;BME280;12423;48.768;8.850;2022-12-18T10:22:10;98055.69;;;-4.54;100.00
24306;BME280;12423;48.768;8.850;2022-12-18T10:23:51;98053.97;;;-4.55;100.00
24306;BME280;12423;48.768;8.850;2022-12-18T10:26:00;98060.03;;;-4.53;100.00
24306;BME280;12423;48.768;8.850;2022-12-18T10:28:15;98062.53;;;-4.40;100.00
24306;BME280;12423;48.768;8.850;2022-12-18T10:30:17;98057.19;;;-4.30;100.00
24306;BME280;12423;48.768;8.850;2022-12-18T10:32:21;98049.34;;;-4.28;100.00
24306;BME280;12423;48.768;8.850;2022-12-18T10:34:23;98063.13;;;-4.14;100.00
24306;BME280;12423;48.768;8.850;2022-12-18T10:36:24;98061.34;;;-4.12;100.00
24306;BME280;12423;48.768;8.850;2022-12-18T10:38:26;98072.56;;;-4.03;100.00
24306;BME280;12423;48.768;8.850;2022-12-18T10:40:28;98069.91;;;-3.99;100.00
24306;BME280;12423;48.768;8.850;2022-12-18T10:42:28;98072.50;;;-3.97;100.00
24306;BME280;12423;48.768;8.850;2022-12-18T10:44:29;98065.47;;;-3.91;100.00
24306;BME280;12423;48.768;8.850;2022-12-18T10:46:30;98061.91;;;-3.83;100.00
24306;BME280;12423;48.768;8.850;2022-12-18T10:48:31;98060.13;;;-3.83;100.00
24306;BME280;12423;48.768;8.850;2022-12-18T10:50:34;98063.59;;;-3.78;100.00
24306;BME280;12423;48.768;8.850;2022-12-18T10:52:35;98064.47;;;-3.80;100.00
24306;BME280;12423;48.768;8.850;2022-12-18T10:54:36;98069.59;;;-3.71;100.00
24306;BME280;12423;48.768;8.850;2022-12-18T10:56:38;98061.56;;;-3.57;100.00
24306;BME280;12423;48.768;8.850;2022-12-18T10:58:39;98055.38;;;-3.52;100.00
24306;BME280;12423;48.768;8.850;2022-12-18T11:00:40;98046.56;;;-3.41;100.00
24306;BME280;12423;48.768;8.850;2022-12-18T11:02:41;98050.84;;;-3.39;100.00
24306;BME280;12423;48.768;8.850;2022-12-18T11:04:49;98049.00;;;-3.30;100.00
24306;BME280;12423;48.768;8.850;2022-12-18T11:06:55;98049.00;;;-3.30;100.00